Terminal Aerodrome Forecast
Issued by NWS Charleston, WV

Current Version | Previous Version | Graphics & Text | Print | Product List | Glossary On
Versions: 1 2 3 4 5 6 7 8 9 10 11 12 13 14 15 16 17 18 19 20 21 22 23 24 25 26
000
FTUS41 KRLX 271700 AAA
TAFHTS
TAF AMD
KHTS 271759Z 2718/2818 17012G20KT 6SM BR VCTS SCT025CB BKN100
      TEMPO 2718/2720 3SM -TSRA BKN025CB
     FM272100 21013G20KT 5SM BR VCTS BKN040CB
     FM272200 23011G17KT 6SM BR VCTS BKN040CB
     FM272300 27011G16KT P6SM VCTS BKN045CB
     FM280300 26009KT P6SM BKN045=

USA.gov is the U.S. government's official web portal to all federal, state and local government web resources and services.